Timashevsk, Russia
Current Conditions -  °F | °C
As of 10:30 PM on Thursday 27 Nov 2014 (Local Time) from URKK Reporting Station
Broken Clouds Broken Clouds  
Wind Chill: 32°   Ceiling: 2100
Heat Index: 36°   Visibility: 6mi
Dew Point: 32°   Wind: 4mph
Humidity: 87%   Direction: 200°SSW
Pressure: 30.21"   Gusts: NA
Location:  45.61°N, 38.94°E
Report Text: URKK 271930Z 20002MPS 9999 SCT021CB BKN021 02/00 Q1023 NOSIGRMK QFE764 SC070
Loading
Personal Weather Stations






























Interactive Weather Map New forecast layout! Learn more

10-Day Weather Forecast

Advertisements
Track Severe Weather on mobile